Aeroporto :
LOGIN :

Iscrizione | Disclaimer

   EN    FR    IT 

 










Sommario :    VFR   VFR Marginale   IFR   IFR Intensivo   IFR Molto Intensivo
Visibilità : 
Base nubi : 
>= 8 km
>= 3000ft
5 / 8 km
1000 / 3000 ft
1500m / 5 km
500 / 1000 ft
800 / 1500m
200 / 500 ft
< 800m
< 200 ft
Simboli :   Temporali  Nebbia  Neve Forte  Precipitazioni Forti  Vento > 20 kt
SIGMETs :   Varie  Temporali  Ghiacco  Turbolenza  Onda orograficha  Ceneri Vulcaniche






- Altitudine del aeroporto : 1649 ft
- Codice IATA : HHN


EDFH - Frankfurt-Hahn Rhineland-Palatinate

ULTIMO METAR :
  • 291850Z 10003KT 040V190 CAVOK M04/M05 Q1024

METARs OBSOLETI :
  • 291820Z 10005KT 050V150 CAVOK M04/M05 Q1024
  • 291750Z 10006KT 040V140 CAVOK M03/M05 Q1024
  • 291720Z 09004KT 050V140 CAVOK M04/M05 Q1024
  • 291650Z VRB02KT 9999 FEW010 M04/M05 Q1023
  • 291620Z 09004KT 360V150 9999 FEW010 M03/M05 Q1023

TAF TAF EDFH
Valido dal 29 a 18 ore il 30 a 18 ore UTC


291700Z 2918/3018 11005KT 9999 FEW010
PROB30
TEMPO 3000/3010 0400 FZFG VV001
BECMG 3006/3010 22006KT
PROB30
TEMPO 3010/3018 4000 BCFG



MetMap, La meteo Aeronautica in un colpo d'occhio ! - Copyright ORBIFLY Dicembre 2007 - Disclaimer

ORBIFLY MET'MAP TEAM :

Programmazione e sviluppo : Alexandra Zaïnal
Concezione : Baudouin d'Aumeries
Aiuto per la programmazione : Marc-Olivier Méhu
Supporto tecnico e logistico : Manuel Goepfert
Aiuto per la traduzione : Arnaldo La Scala

Contatto : metmap@orbifly.com




FONTI E CREDITI :

   NOAA